createdAt,value
2022-09-01T00:00:15.125Z,15.05
2022-09-01T00:03:19.720Z,15.14
2022-09-01T00:06:25.036Z,14.82
2022-09-01T00:09:29.613Z,14.85
2022-09-01T00:12:33.280Z,14.76
2022-09-01T00:15:37.476Z,14.90
2022-09-01T00:19:01.043Z,14.85
2022-09-01T00:22:24.180Z,14.94
2022-09-01T00:25:48.514Z,14.89
2022-09-01T00:29:11.891Z,14.94
2022-09-01T00:32:34.956Z,15.04
2022-09-01T00:35:58.085Z,14.91
2022-09-01T00:39:21.124Z,15.03
2022-09-01T00:42:46.190Z,15.07
2022-09-01T00:48:21.952Z,14.97
2022-09-01T00:51:48.927Z,15.11
2022-09-01T00:55:17.440Z,15.17
2022-09-01T00:58:40.875Z,15.08
2022-09-01T01:03:25.053Z,14.93
2022-09-01T01:06:58.572Z,14.91
2022-09-01T01:10:25.048Z,15.04
2022-09-01T01:13:51.156Z,15.11
2022-09-01T01:18:23.620Z,15.15
2022-09-01T01:22:06.068Z,15.32
2022-09-01T01:25:33.581Z,15.08
2022-09-01T01:28:56.643Z,15.10
2022-09-01T01:33:24.408Z,15.30
2022-09-01T01:36:49.073Z,14.96
2022-09-01T01:40:15.710Z,14.83
2022-09-01T01:43:39.708Z,14.76
2022-09-01T01:48:22.881Z,14.68
2022-09-01T01:51:47.386Z,14.76
2022-09-01T01:55:12.592Z,14.73
2022-09-01T01:58:41.284Z,14.70
2022-09-01T02:03:36.373Z,14.61
2022-09-01T02:06:59.411Z,14.43
2022-09-01T02:10:25.061Z,14.36
2022-09-01T02:13:49.378Z,14.26
2022-09-01T02:18:31.137Z,14.09
2022-09-01T02:21:56.276Z,14.03
2022-09-01T02:25:20.632Z,14.18
2022-09-01T02:28:54.372Z,13.95
2022-09-01T02:33:21.666Z,13.96
2022-09-01T02:36:48.798Z,14.01
2022-09-01T02:40:16.033Z,14.44
2022-09-01T02:43:42.908Z,14.07
2022-09-01T02:48:23.971Z,14.47
2022-09-01T02:51:49.924Z,14.54
2022-09-01T02:55:14.077Z,14.36
2022-09-01T02:58:42.085Z,14.30
2022-09-01T03:03:37.781Z,14.87
2022-09-01T03:07:00.896Z,14.56
2022-09-01T03:10:32.551Z,14.47
2022-09-01T03:13:55.633Z,14.40
2022-09-01T03:18:21.949Z,14.87
2022-09-01T03:21:46.509Z,14.96
2022-09-01T03:25:12.680Z,14.63
2022-09-01T03:28:37.652Z,14.79
2022-09-01T03:34:23.640Z,14.50
2022-09-01T03:37:48.798Z,14.15
2022-09-01T03:41:13.231Z,14.48
2022-09-01T03:44:40.370Z,14.67
2022-09-01T03:48:35.816Z,14.35
2022-09-01T03:51:58.963Z,14.42
2022-09-01T03:55:26.805Z,14.66
2022-09-01T03:58:52.681Z,15.00
2022-09-01T04:03:28.534Z,13.83
2022-09-01T04:06:52.612Z,14.23
2022-09-01T04:10:17.872Z,14.46
2022-09-01T04:13:43.015Z,14.15
2022-09-01T04:18:22.211Z,14.20
2022-09-01T04:21:45.897Z,13.93
2022-09-01T04:25:10.813Z,13.95
2022-09-01T04:28:37.421Z,13.90
2022-09-01T04:33:25.737Z,13.55
2022-09-01T04:36:54.338Z,13.92
2022-09-01T04:40:18.712Z,13.82
2022-09-01T04:43:42.693Z,13.90
2022-09-01T04:48:23.212Z,13.93
2022-09-01T04:51:53.691Z,13.35
2022-09-01T04:55:18.641Z,13.96
2022-09-01T04:58:41.803Z,13.50
2022-09-01T05:03:32.134Z,13.51
2022-09-01T05:07:17.731Z,13.48
2022-09-01T05:10:42.913Z,13.77
2022-09-01T05:14:14.609Z,13.94
2022-09-01T05:18:24.653Z,13.55
2022-09-01T05:21:49.671Z,13.67
2022-09-01T05:25:13.439Z,13.70
2022-09-01T05:28:41.650Z,13.93
2022-09-01T05:33:25.006Z,14.17
2022-09-01T05:36:50.543Z,14.66
2022-09-01T05:40:16.348Z,14.32
2022-09-01T05:43:50.385Z,14.30
2022-09-01T05:48:24.084Z,14.26
2022-09-01T05:51:51.768Z,14.74
2022-09-01T05:55:18.685Z,14.76
2022-09-01T06:03:31.330Z,15.14
2022-09-01T06:07:10.189Z,15.09
2022-09-01T06:10:40.034Z,15.30
2022-09-01T06:14:06.007Z,15.49
2022-09-01T06:18:21.953Z,15.73
2022-09-01T06:21:52.072Z,15.54
2022-09-01T06:25:18.625Z,15.68
2022-09-01T06:28:24.873Z,15.82
2022-09-01T06:31:34.201Z,16.06
2022-09-01T06:34:46.174Z,16.31
2022-09-01T06:37:49.996Z,15.70
2022-09-01T06:41:32.043Z,15.42
2022-09-01T06:44:40.663Z,15.64
2022-09-01T06:47:47.287Z,15.47
2022-09-01T06:54:21.147Z,16.03
2022-09-01T07:00:49.992Z,16.55
2022-09-01T07:03:55.523Z,16.05
2022-09-01T07:18:17.437Z,16.53
2022-09-01T07:21:39.192Z,17.18
2022-09-01T07:24:46.136Z,17.56
2022-09-01T07:28:17.419Z,16.97
2022-09-01T07:34:50.016Z,17.22
2022-09-01T07:49:02.519Z,18.19
2022-09-01T07:52:02.139Z,18.19
2022-09-01T07:55:08.662Z,17.71
2022-09-01T07:58:13.521Z,17.48
2022-09-01T08:01:21.420Z,18.50
2022-09-01T08:04:26.992Z,18.54
2022-09-01T08:07:31.774Z,18.51
2022-09-01T08:10:36.882Z,18.09
2022-09-01T08:13:42.227Z,19.29
2022-09-01T08:16:53.592Z,18.83
2022-09-01T08:19:57.346Z,19.29
2022-09-01T08:23:26.470Z,18.68
2022-09-01T08:26:29.872Z,18.98
2022-09-01T08:29:34.772Z,19.34
2022-09-01T08:32:42.258Z,19.12
2022-09-01T08:35:48.836Z,19.15
2022-09-01T08:38:53.681Z,19.90
2022-09-01T08:42:08.819Z,19.33
2022-09-01T08:45:22.261Z,19.71
2022-09-01T08:49:23.620Z,19.45
2022-09-01T08:52:00.945Z,19.82
2022-09-01T08:55:12.192Z,19.87
2022-09-01T08:58:19.000Z,19.79
2022-09-01T09:01:51.324Z,19.67
2022-09-01T09:05:15.452Z,19.76
2022-09-01T09:08:49.650Z,20.50
2022-09-01T09:12:10.761Z,20.47
2022-09-01T09:15:25.510Z,20.02
2022-09-01T09:18:40.232Z,20.36
2022-09-01T09:21:47.376Z,20.25
2022-09-01T09:24:53.036Z,20.10
2022-09-01T09:28:03.550Z,20.00
2022-09-01T09:34:35.014Z,20.12
2022-09-01T09:37:38.429Z,19.65
2022-09-01T09:44:28.407Z,19.56
2022-09-01T09:47:44.395Z,19.91
2022-09-01T09:50:49.555Z,19.55
2022-09-01T09:53:55.667Z,19.99
2022-09-01T09:57:12.224Z,19.64
2022-09-01T10:00:24.054Z,19.74
2022-09-01T10:03:43.771Z,20.28
2022-09-01T10:06:49.012Z,19.98
2022-09-01T10:09:53.343Z,20.26
2022-09-01T10:12:58.808Z,20.49
2022-09-01T10:16:05.592Z,19.92
2022-09-01T10:19:16.338Z,20.08
2022-09-01T10:22:22.603Z,20.07
2022-09-01T10:25:32.456Z,19.88
2022-09-01T10:28:50.605Z,19.96
2022-09-01T10:32:14.885Z,19.82
2022-09-01T10:35:23.951Z,19.77
2022-09-01T10:38:30.800Z,20.07
2022-09-01T10:41:53.261Z,20.10
2022-09-01T10:45:03.331Z,19.97
2022-09-01T10:48:31.108Z,20.25
2022-09-01T10:51:55.175Z,20.40
2022-09-01T10:55:05.441Z,20.45
2022-09-01T11:02:28.793Z,20.16
2022-09-01T11:06:17.954Z,20.17
2022-09-01T11:09:25.081Z,20.18
2022-09-01T11:12:49.458Z,20.20
2022-09-01T11:15:54.435Z,20.17
2022-09-01T11:19:24.206Z,20.01
2022-09-01T11:22:34.459Z,20.67
2022-09-01T11:25:43.906Z,20.40
2022-09-01T11:28:49.174Z,20.15
2022-09-01T11:31:53.549Z,20.52
2022-09-01T11:34:58.478Z,20.43
2022-09-01T11:38:07.409Z,20.23
2022-09-01T11:41:22.253Z,20.60
2022-09-01T11:44:31.244Z,20.75
2022-09-01T11:47:39.625Z,20.20
2022-09-01T11:50:44.070Z,20.62
2022-09-01T11:53:48.383Z,20.38
2022-09-01T11:56:51.910Z,20.46
2022-09-01T11:59:57.630Z,20.25
2022-09-01T12:03:01.882Z,20.34
2022-09-01T12:06:07.788Z,20.09
2022-09-01T12:09:11.444Z,20.30
2022-09-01T12:12:31.122Z,20.32
2022-09-01T12:16:00.622Z,20.25
2022-09-01T12:19:07.563Z,20.32
2022-09-01T12:22:18.276Z,20.43
2022-09-01T12:25:24.182Z,20.10
2022-09-01T12:28:33.906Z,20.33
2022-09-01T12:31:41.062Z,20.14
2022-09-01T12:34:51.257Z,20.13
2022-09-01T12:38:22.771Z,20.09
2022-09-01T12:41:39.303Z,20.21
2022-09-01T12:44:51.348Z,20.40
2022-09-01T12:47:56.285Z,20.41
2022-09-01T12:51:02.314Z,20.39
2022-09-01T12:54:06.411Z,20.50
2022-09-01T12:57:22.039Z,20.41
2022-09-01T13:00:29.720Z,20.58
2022-09-01T13:03:34.744Z,20.62
2022-09-01T13:06:38.215Z,20.45
2022-09-01T13:09:41.435Z,20.48
2022-09-01T13:12:45.895Z,20.47
2022-09-01T13:15:50.496Z,20.54
2022-09-01T13:19:11.082Z,21.02
2022-09-01T13:22:14.688Z,21.13
2022-09-01T13:25:21.361Z,20.85
2022-09-01T13:31:30.212Z,20.65
2022-09-01T13:34:35.599Z,20.77
2022-09-01T13:37:38.857Z,20.01
2022-09-01T13:40:42.307Z,20.64
2022-09-01T13:43:48.363Z,20.60
2022-09-01T13:46:59.585Z,20.86
2022-09-01T13:50:07.600Z,20.85
2022-09-01T13:53:12.005Z,20.85
2022-09-01T13:56:15.297Z,20.98
2022-09-01T13:59:18.823Z,20.85
2022-09-01T14:02:21.942Z,20.98
2022-09-01T14:05:30.737Z,20.76
2022-09-01T14:08:34.339Z,20.83
2022-09-01T14:11:37.779Z,20.71
2022-09-01T14:18:05.165Z,20.96
2022-09-01T14:21:14.823Z,20.82
2022-09-01T14:24:19.885Z,20.97
2022-09-01T14:27:23.226Z,20.93
2022-09-01T14:30:31.469Z,21.15
2022-09-01T14:33:35.476Z,20.78
2022-09-01T14:36:40.190Z,21.03
2022-09-01T14:39:43.524Z,21.30
2022-09-01T14:42:49.701Z,21.27
2022-09-01T14:46:06.550Z,20.83
2022-09-01T14:49:11.735Z,20.70
2022-09-01T14:52:18.637Z,21.04
2022-09-01T14:55:23.018Z,21.04
2022-09-01T14:58:26.566Z,21.11
2022-09-01T15:01:34.585Z,21.37
2022-09-01T15:04:39.656Z,21.22
2022-09-01T15:07:44.974Z,21.06
2022-09-01T15:10:49.136Z,21.42
2022-09-01T15:13:53.089Z,21.37
2022-09-01T15:16:56.619Z,21.18
2022-09-01T15:20:21.316Z,21.81
2022-09-01T15:23:27.233Z,21.58
2022-09-01T15:26:31.857Z,21.69
2022-09-01T15:29:36.792Z,21.72
2022-09-01T15:34:25.264Z,21.05
2022-09-01T15:37:28.555Z,20.92
2022-09-01T15:40:32.071Z,20.66
2022-09-01T15:43:35.437Z,20.81
2022-09-01T15:46:41.127Z,20.71
2022-09-01T15:49:46.123Z,20.34
2022-09-01T15:52:53.452Z,20.55
2022-09-01T15:55:57.429Z,20.57
2022-09-01T15:59:02.262Z,20.44
2022-09-01T16:02:06.514Z,20.62
2022-09-01T16:05:13.563Z,20.50
2022-09-01T16:08:16.906Z,20.48
2022-09-01T16:11:20.429Z,20.60
2022-09-01T16:14:23.755Z,20.47
2022-09-01T16:17:42.249Z,20.53
2022-09-01T16:20:55.909Z,20.47
2022-09-01T16:24:06.010Z,20.36
2022-09-01T16:27:10.491Z,20.38
2022-09-01T16:30:16.570Z,20.38
2022-09-01T16:33:21.003Z,20.53
2022-09-01T16:36:35.852Z,20.38
2022-09-01T16:39:47.146Z,20.40
2022-09-01T16:42:58.004Z,20.26
2022-09-01T16:46:08.426Z,20.32
2022-09-01T16:49:19.776Z,20.05
2022-09-01T16:52:34.427Z,20.26
2022-09-01T16:55:50.845Z,20.18
2022-09-01T16:59:03.174Z,20.15
2022-09-01T17:02:35.731Z,20.02
2022-09-01T17:05:46.417Z,19.99
2022-09-01T17:08:55.363Z,19.95
2022-09-01T17:12:13.338Z,20.03
2022-09-01T17:15:18.236Z,19.85
2022-09-01T17:18:30.982Z,20.04
2022-09-01T17:21:41.697Z,19.75
2022-09-01T17:24:50.453Z,19.85
2022-09-01T17:27:59.725Z,19.98
2022-09-01T17:31:13.022Z,19.89
2022-09-01T17:34:34.776Z,19.45
2022-09-01T17:37:47.893Z,19.61
2022-09-01T17:41:07.663Z,19.24
2022-09-01T17:44:21.196Z,19.54
2022-09-01T17:47:37.415Z,19.33
2022-09-01T17:50:55.881Z,19.31
2022-09-01T17:54:12.668Z,19.36
2022-09-01T17:57:25.687Z,19.19
2022-09-01T18:00:34.904Z,19.05
2022-09-01T18:03:48.187Z,19.29
2022-09-01T18:07:00.393Z,19.06
2022-09-01T18:10:09.956Z,18.82
2022-09-01T18:13:49.220Z,18.85
2022-09-01T18:16:58.238Z,19.23
2022-09-01T18:20:08.326Z,18.93
2022-09-01T18:23:13.331Z,18.73
2022-09-01T18:26:24.505Z,18.43
2022-09-01T18:29:32.073Z,18.63
2022-09-01T18:32:42.681Z,18.23
2022-09-01T18:35:53.177Z,18.11
2022-09-01T18:39:00.948Z,18.37
2022-09-01T18:42:12.160Z,18.17
2022-09-01T18:45:29.081Z,18.38
2022-09-01T18:48:45.038Z,18.32
2022-09-01T18:52:00.432Z,18.18
2022-09-01T18:55:14.052Z,17.96
2022-09-01T18:58:31.812Z,17.76
2022-09-01T19:01:40.820Z,17.96
2022-09-01T19:04:45.994Z,18.24
2022-09-01T19:07:57.264Z,17.73
2022-09-01T19:11:07.481Z,17.67
2022-09-01T19:17:57.122Z,17.85
2022-09-01T19:21:06.938Z,17.57
2022-09-01T19:24:14.153Z,17.56
2022-09-01T19:27:22.432Z,17.19
2022-09-01T19:30:25.674Z,17.21
2022-09-01T19:33:37.853Z,17.10
2022-09-01T19:36:44.087Z,17.09
2022-09-01T19:39:53.787Z,17.03
2022-09-01T19:43:04.100Z,17.17
2022-09-01T19:46:18.624Z,17.03
2022-09-01T19:49:34.532Z,17.05
2022-09-01T19:52:47.661Z,17.05
2022-09-01T19:55:58.755Z,17.05
2022-09-01T19:59:09.601Z,16.90
2022-09-01T20:02:27.146Z,16.85
2022-09-01T20:05:34.944Z,16.63
2022-09-01T20:08:42.999Z,17.11
2022-09-01T20:11:53.717Z,16.81
2022-09-01T20:15:08.033Z,16.87
2022-09-01T20:18:22.127Z,16.86
2022-09-01T20:21:27.065Z,16.90
2022-09-01T20:24:36.585Z,17.07
2022-09-01T20:27:51.017Z,16.59
2022-09-01T20:30:59.035Z,16.29
2022-09-01T20:34:08.777Z,16.41
2022-09-01T20:37:19.228Z,16.57
2022-09-01T20:40:31.302Z,16.21
2022-09-01T20:43:40.892Z,16.04
2022-09-01T20:46:44.239Z,16.26
2022-09-01T20:49:51.051Z,16.21
2022-09-01T20:53:13.846Z,15.88
2022-09-01T20:56:24.927Z,16.06
2022-09-01T20:59:37.182Z,15.84
2022-09-01T21:02:49.885Z,16.24
2022-09-01T21:05:59.550Z,16.43
2022-09-01T21:09:10.647Z,16.12
2022-09-01T21:12:29.836Z,15.84
2022-09-01T21:15:41.752Z,15.56
2022-09-01T21:18:57.312Z,15.09
2022-09-01T21:22:06.346Z,15.66
2022-09-01T21:25:11.377Z,16.12
2022-09-01T21:28:19.986Z,14.80
2022-09-01T21:34:23.329Z,14.74
2022-09-01T21:37:28.347Z,14.75
2022-09-01T21:40:32.085Z,14.80
2022-09-01T21:43:38.554Z,14.45
2022-09-01T21:46:41.869Z,14.11
2022-09-01T21:49:46.659Z,14.53
2022-09-01T21:52:50.382Z,14.25
2022-09-01T21:55:53.642Z,14.03
2022-09-01T21:58:59.341Z,14.59
2022-09-01T22:02:02.648Z,14.53
2022-09-01T22:05:07.705Z,14.47
2022-09-01T22:08:12.783Z,14.47
2022-09-01T22:11:16.385Z,14.02
2022-09-01T22:14:21.601Z,14.09
2022-09-01T22:17:24.935Z,13.77
2022-09-01T22:20:31.923Z,14.48
2022-09-01T22:23:36.197Z,14.34
2022-09-01T22:26:39.573Z,14.40
2022-09-01T22:29:43.413Z,13.86
2022-09-01T22:32:47.879Z,13.60
2022-09-01T22:35:55.140Z,13.52
2022-09-01T22:38:59.634Z,13.37
2022-09-01T22:42:06.006Z,13.34
2022-09-01T22:45:25.749Z,13.11
2022-09-01T22:48:30.205Z,13.17
2022-09-01T22:51:36.201Z,12.90
2022-09-01T22:55:07.187Z,12.78
2022-09-01T22:58:29.369Z,12.66
2022-09-01T23:01:35.062Z,12.45
2022-09-01T23:04:38.857Z,12.31
2022-09-01T23:07:44.089Z,12.21
2022-09-01T23:10:47.703Z,12.34
2022-09-01T23:13:51.016Z,12.10
2022-09-01T23:16:56.268Z,12.20
2022-09-01T23:20:02.231Z,12.24
2022-09-01T23:23:07.013Z,11.99
2022-09-01T23:26:12.234Z,11.91
2022-09-01T23:29:15.762Z,11.96
2022-09-01T23:32:19.095Z,12.02
2022-09-01T23:35:22.453Z,12.29
2022-09-01T23:38:27.448Z,12.43
2022-09-01T23:41:33.575Z,12.38
2022-09-01T23:44:37.998Z,12.24
2022-09-01T23:47:41.153Z,12.07
2022-09-01T23:50:45.436Z,11.94
2022-09-01T23:53:51.098Z,11.97
2022-09-01T23:56:54.358Z,12.27
2022-09-01T23:59:57.879Z,12.13
